Time,TemperatureF,DewpointF,PressureIn,WindDirection,WindDirectionDegrees,WindSpeedMPH,WindSpeedGustMPH,Humidity,HourlyPrecipIn,Conditions,Clouds,dailyrainin,SoftwareType,DateUTC
2013-07-15 00:02:00,46.5,44.6,30.02,ENE,63,0.0,0.0,93,0.00,,,0.00,Wunderground v.1.15,2013-07-15 07:02:00,
2013-07-15 00:07:00,46.4,44.8,30.02,ENE,63,0.0,0.0,94,0.00,,,0.00,Wunderground v.1.15,2013-07-15 07:07:00,
2013-07-15 00:13:00,46.4,44.8,30.02,ENE,63,0.0,0.0,94,0.00,,,0.00,Wunderground v.1.15,2013-07-15 07:13:00,
2013-07-15 00:19:00,46.3,44.7,30.02,ENE,63,0.0,0.0,94,0.00,,,0.00,Wunderground v.1.15,2013-07-15 07:19:00,
2013-07-15 00:25:00,46.1,44.5,30.02,ENE,63,0.0,0.0,94,0.00,,,0.00,Wunderground v.1.15,2013-07-15 07:25:00,
2013-07-15 00:31:00,46.0,44.4,30.02,ENE,63,0.0,0.0,94,0.00,,,0.00,Wunderground v.1.15,2013-07-15 07:31:00,
2013-07-15 00:36:00,46.1,44.7,30.02,ENE,63,0.0,0.0,95,0.00,,,0.00,Wunderground v.1.15,2013-07-15 07:36:00,
2013-07-15 00:42:00,46.1,44.7,30.02,ENE,63,0.0,0.0,95,0.00,,,0.00,Wunderground v.1.15,2013-07-15 07:42:00,
2013-07-15 00:47:00,46.2,44.8,30.02,ENE,63,0.0,0.0,95,0.00,,,0.00,Wunderground v.1.15,2013-07-15 07:47:00,
2013-07-15 00:53:00,46.0,44.6,30.02,ENE,63,0.0,0.0,95,0.00,,,0.00,Wunderground v.1.15,2013-07-15 07:53:00,
2013-07-15 00:59:00,45.9,44.5,30.02,ENE,63,0.0,0.0,95,0.00,,,0.00,Wunderground v.1.15,2013-07-15 07:59:00,
2013-07-15 01:05:00,46.0,44.9,30.01,ENE,63,0.0,0.0,96,0.00,,,0.00,Wunderground v.1.15,2013-07-15 08:05:00,
2013-07-15 01:11:00,46.0,44.6,30.01,ENE,63,0.0,0.0,95,0.00,,,0.00,Wunderground v.1.15,2013-07-15 08:11:00,
2013-07-15 01:17:00,46.0,44.9,30.01,ENE,63,0.0,0.0,96,0.00,,,0.00,Wunderground v.1.15,2013-07-15 08:17:00,
2013-07-15 01:22:00,45.9,44.5,30.01,ENE,63,0.0,0.0,95,0.00,,,0.00,Wunderground v.1.15,2013-07-15 08:22:00,
2013-07-15 01:27:00,45.8,44.4,30.01,ENE,63,0.0,0.0,95,0.00,,,0.00,Wunderground v.1.15,2013-07-15 08:27:00,
2013-07-15 01:33:00,45.7,44.4,30.01,ENE,63,0.0,0.0,95,0.00,,,0.00,Wunderground v.1.15,2013-07-15 08:33:00,
2013-07-15 01:39:00,45.6,44.3,30.01,ENE,63,0.0,0.0,95,0.00,,,0.00,Wunderground v.1.15,2013-07-15 08:39:00,
2013-07-15 01:45:00,45.4,44.1,30.01,ENE,63,0.0,0.0,95,0.00,,,0.00,Wunderground v.1.15,2013-07-15 08:45:00,
2013-07-15 01:51:00,45.4,44.3,30.01,ENE,63,0.0,0.0,96,0.00,,,0.00,Wunderground v.1.15,2013-07-15 08:51:00,
2013-07-15 01:57:00,45.4,44.1,30.01,ENE,63,0.0,0.0,95,0.00,,,0.00,Wunderground v.1.15,2013-07-15 08:57:00,
2013-07-15 02:03:00,45.5,44.4,30.01,ENE,63,0.0,0.0,96,0.00,,,0.00,Wunderground v.1.15,2013-07-15 09:03:00,
2013-07-15 02:09:00,45.4,44.3,30.01,ENE,63,0.0,0.0,96,0.00,,,0.00,Wunderground v.1.15,2013-07-15 09:09:00,
2013-07-15 02:14:00,45.5,44.4,30.01,ENE,63,0.0,0.0,96,0.00,,,0.00,Wunderground v.1.15,2013-07-15 09:14:00,
2013-07-15 02:19:00,45.2,43.9,30.01,ENE,63,0.0,0.0,95,0.00,,,0.00,Wunderground v.1.15,2013-07-15 09:19:00,
2013-07-15 02:25:00,45.1,44.0,30.01,ENE,63,0.0,0.0,96,0.00,,,0.00,Wunderground v.1.15,2013-07-15 09:25:00,
2013-07-15 02:31:00,44.9,43.8,30.01,ENE,63,0.0,0.0,96,0.00,,,0.00,Wunderground v.1.15,2013-07-15 09:31:00,
2013-07-15 02:36:00,44.8,43.7,30.01,ENE,63,0.0,0.0,96,0.00,,,0.00,Wunderground v.1.15,2013-07-15 09:36:00,
2013-07-15 02:41:00,44.6,43.5,30.01,ENE,63,0.0,0.0,96,0.00,,,0.00,Wunderground v.1.15,2013-07-15 09:41:00,
2013-07-15 02:47:00,44.6,43.5,30.01,ENE,63,0.0,0.0,96,0.00,,,0.00,Wunderground v.1.15,2013-07-15 09:47:00,
2013-07-15 02:53:00,44.6,43.5,30.01,ENE,63,0.0,0.0,96,0.00,,,0.00,Wunderground v.1.15,2013-07-15 09:53:00,
2013-07-15 02:58:00,44.5,43.4,30.01,ENE,63,0.0,0.0,96,0.00,,,0.00,Wunderground v.1.15,2013-07-15 09:58:00,
2013-07-15 03:04:00,44.4,43.3,30.01,ENE,63,0.0,0.0,96,0.00,,,0.00,Wunderground v.1.15,2013-07-15 10:04:00,
2013-07-15 03:10:00,44.3,43.2,30.01,ENE,63,0.0,0.0,96,0.00,,,0.00,Wunderground v.1.15,2013-07-15 10:10:00,
2013-07-15 03:16:00,44.4,43.3,30.01,ENE,63,0.0,0.0,96,0.00,,,0.00,Wunderground v.1.15,2013-07-15 10:16:00,
2013-07-15 03:22:00,44.3,43.2,30.01,ENE,63,0.0,0.0,96,0.00,,,0.00,Wunderground v.1.15,2013-07-15 10:22:00,
2013-07-15 03:28:00,44.3,43.2,30.01,ENE,63,0.0,0.0,96,0.00,,,0.00,Wunderground v.1.15,2013-07-15 10:28:00,
2013-07-15 03:33:00,44.1,43.0,30.01,ENE,63,0.0,0.0,96,0.00,,,0.00,Wunderground v.1.15,2013-07-15 10:33:00,
2013-07-15 03:39:00,44.2,43.1,30.01,ENE,63,0.0,0.0,96,0.00,,,0.00,Wunderground v.1.15,2013-07-15 10:39:00,
2013-07-15 03:45:00,44.1,43.0,30.01,ENE,63,0.0,0.0,96,0.00,,,0.00,Wunderground v.1.15,2013-07-15 10:45:00,
2013-07-15 03:50:00,43.9,42.8,30.01,ENE,63,0.0,0.0,96,0.00,,,0.00,Wunderground v.1.15,2013-07-15 10:50:00,
2013-07-15 03:55:00,43.8,42.7,30.01,ENE,63,0.0,0.0,96,0.00,,,0.00,Wunderground v.1.15,2013-07-15 10:55:00,
2013-07-15 04:00:00,43.7,42.6,30.01,ENE,63,0.0,0.0,96,0.00,,,0.00,Wunderground v.1.15,2013-07-15 11:00:00,
2013-07-15 04:05:00,43.6,42.5,30.01,ENE,63,0.0,0.0,96,0.00,,,0.00,Wunderground v.1.15,2013-07-15 11:05:00,
2013-07-15 04:10:00,43.7,42.6,30.01,ENE,63,0.0,0.0,96,0.00,,,0.00,Wunderground v.1.15,2013-07-15 11:10:00,
2013-07-15 04:16:00,43.9,43.1,30.01,ENE,63,0.0,0.0,97,0.00,,,0.00,Wunderground v.1.15,2013-07-15 11:16:00,
2013-07-15 04:22:00,43.7,42.6,30.00,ENE,63,0.0,0.0,96,0.00,,,0.00,Wunderground v.1.15,2013-07-15 11:22:00,
2013-07-15 04:27:00,43.6,42.5,30.00,ENE,63,0.0,0.0,96,0.00,,,0.00,Wunderground v.1.15,2013-07-15 11:27:00,
2013-07-15 04:33:00,43.5,42.4,30.00,ENE,63,0.0,0.0,96,0.00,,,0.00,Wunderground v.1.15,2013-07-15 11:33:00,
2013-07-15 04:38:00,43.7,42.9,30.00,ENE,63,0.0,0.0,97,0.00,,,0.00,Wunderground v.1.15,2013-07-15 11:38:00,
2013-07-15 04:43:00,43.6,42.5,30.00,ENE,63,0.0,0.0,96,0.00,,,0.00,Wunderground v.1.15,2013-07-15 11:43:00,
2013-07-15 04:48:00,43.6,42.8,30.00,ENE,63,0.0,0.0,97,0.00,,,0.00,Wunderground v.1.15,2013-07-15 11:48:00,
2013-07-15 04:53:00,43.8,43.0,30.00,ENE,63,0.0,0.0,97,0.00,,,0.00,Wunderground v.1.15,2013-07-15 11:53:00,
2013-07-15 04:59:00,43.5,42.4,30.00,ENE,63,0.0,0.0,96,0.00,,,0.00,Wunderground v.1.15,2013-07-15 11:59:00,
2013-07-15 05:04:00,43.4,42.3,30.00,ENE,63,0.0,0.0,96,0.00,,,0.00,Wunderground v.1.15,2013-07-15 12:04:00,
2013-07-15 05:09:00,43.3,42.2,30.00,ENE,63,0.0,0.0,96,0.00,,,0.00,Wunderground v.1.15,2013-07-15 12:09:00,
2013-07-15 05:14:00,43.4,42.6,30.01,ENE,63,0.0,0.0,97,0.00,,,0.00,Wunderground v.1.15,2013-07-15 12:14:00,
2013-07-15 05:19:00,43.3,42.2,30.01,ENE,63,0.0,0.0,96,0.00,,,0.00,Wunderground v.1.15,2013-07-15 12:19:00,
2013-07-15 05:24:00,43.1,42.0,30.01,ENE,63,0.0,0.0,96,0.00,,,0.00,Wunderground v.1.15,2013-07-15 12:24:00,
2013-07-15 05:29:00,43.1,42.0,30.01,ENE,63,0.0,0.0,96,0.00,,,0.00,Wunderground v.1.15,2013-07-15 12:29:00,
2013-07-15 05:34:00,43.0,41.9,30.01,ENE,63,0.0,0.0,96,0.00,,,0.00,Wunderground v.1.15,2013-07-15 12:34:00,
2013-07-15 05:39:00,42.9,41.8,30.01,ENE,63,0.0,0.0,96,0.00,,,0.00,Wunderground v.1.15,2013-07-15 12:39:00,
2013-07-15 05:45:00,42.8,41.7,30.01,ENE,63,0.0,0.0,96,0.00,,,0.00,Wunderground v.1.15,2013-07-15 12:45:00,
2013-07-15 05:51:00,42.9,42.1,30.01,ENE,63,0.0,0.0,97,0.00,,,0.00,Wunderground v.1.15,2013-07-15 12:51:00,
2013-07-15 05:57:00,42.6,41.5,30.01,ENE,63,0.0,0.0,96,0.00,,,0.00,Wunderground v.1.15,2013-07-15 12:57:00,
2013-07-15 06:02:00,42.5,41.4,30.01,ENE,63,0.0,0.0,96,0.00,,,0.00,Wunderground v.1.15,2013-07-15 13:02:00,
2013-07-15 06:07:00,42.4,41.3,30.01,ENE,63,0.0,0.0,96,0.00,,,0.00,Wunderground v.1.15,2013-07-15 13:07:00,
2013-07-15 06:13:00,42.4,41.6,30.01,ENE,64,0.0,0.0,97,0.00,,,0.00,Wunderground v.1.15,2013-07-15 13:13:00,
2013-07-15 06:19:00,42.3,41.2,30.01,ENE,63,0.0,0.0,96,0.00,,,0.00,Wunderground v.1.15,2013-07-15 13:19:00,
2013-07-15 06:24:00,42.3,41.5,30.01,ENE,64,0.0,0.0,97,0.00,,,0.00,Wunderground v.1.15,2013-07-15 13:24:00,
2013-07-15 06:29:00,42.5,41.7,30.01,ENE,63,0.0,0.0,97,0.00,,,0.00,Wunderground v.1.15,2013-07-15 13:29:00,
2013-07-15 06:34:00,42.5,41.7,30.01,ENE,64,0.0,0.0,97,0.00,,,0.00,Wunderground v.1.15,2013-07-15 13:34:00,
2013-07-15 06:39:00,42.7,41.9,30.01,ENE,64,0.0,0.0,97,0.00,,,0.00,Wunderground v.1.15,2013-07-15 13:39:00,
2013-07-15 06:44:00,42.9,42.1,30.01,ENE,63,0.0,0.0,97,0.00,,,0.00,Wunderground v.1.15,2013-07-15 13:44:00,
2013-07-15 06:50:00,43.1,42.3,30.01,ENE,64,0.0,0.0,97,0.00,,,0.00,Wunderground v.1.15,2013-07-15 13:50:00,
2013-07-15 06:55:00,43.2,42.4,30.01,ENE,63,0.0,0.0,97,0.00,,,0.00,Wunderground v.1.15,2013-07-15 13:55:00,
2013-07-15 07:00:00,43.5,42.7,30.01,ENE,64,0.0,0.0,97,0.00,,,0.00,Wunderground v.1.15,2013-07-15 14:00:00,
2013-07-15 07:05:00,43.8,43.0,30.01,ENE,63,0.0,0.0,97,0.00,,,0.00,Wunderground v.1.15,2013-07-15 14:05:00,
2013-07-15 07:11:00,44.4,43.9,30.01,ENE,64,0.0,0.0,98,0.00,,,0.00,Wunderground v.1.15,2013-07-15 14:11:00,
2013-07-15 07:16:00,44.9,44.4,30.01,ENE,64,0.0,0.0,98,0.00,,,0.00,Wunderground v.1.15,2013-07-15 14:16:00,
2013-07-15 07:21:00,45.3,44.8,30.01,ENE,63,0.0,0.0,98,0.00,,,0.00,Wunderground v.1.15,2013-07-15 14:21:00,
2013-07-15 07:27:00,46.0,45.5,30.00,ENE,64,0.0,0.0,98,0.00,,,0.00,Wunderground v.1.15,2013-07-15 14:27:00,
2013-07-15 07:32:00,46.4,45.9,30.00,ENE,64,0.0,0.0,98,0.00,,,0.00,Wunderground v.1.15,2013-07-15 14:32:00,
2013-07-15 07:38:00,46.8,46.3,30.00,ENE,64,0.0,0.0,98,0.00,,,0.00,Wunderground v.1.15,2013-07-15 14:38:00,
2013-07-15 07:42:00,47.0,46.5,30.00,ENE,63,0.0,0.0,98,0.00,,,0.00,Wunderground v.1.15,2013-07-15 14:42:00,
2013-07-15 07:47:00,47.5,47.0,30.00,ENE,64,0.0,0.0,98,0.00,,,0.00,Wunderground v.1.15,2013-07-15 14:47:00,
2013-07-15 07:52:00,48.0,47.5,30.00,ENE,64,0.0,0.0,98,0.00,,,0.00,Wunderground v.1.15,2013-07-15 14:52:00,
2013-07-15 07:58:00,48.3,47.8,30.00,ENE,64,0.0,0.0,98,0.00,,,0.00,Wunderground v.1.15,2013-07-15 14:58:00,
2013-07-15 08:03:00,48.7,48.2,30.00,ENE,64,0.0,0.0,98,0.00,,,0.00,Wunderground v.1.15,2013-07-15 15:03:00,
2013-07-15 08:08:00,49.1,48.6,30.00,ENE,63,0.0,0.0,98,0.00,,,0.00,Wunderground v.1.15,2013-07-15 15:08:00,
2013-07-15 08:13:00,49.5,49.0,30.00,ENE,64,0.0,0.0,98,0.00,,,0.00,Wunderground v.1.15,2013-07-15 15:13:00,
2013-07-15 08:18:00,50.1,49.6,30.00,East,87,0.0,1.0,98,0.00,,,0.00,Wunderground v.1.15,2013-07-15 15:18:00,
2013-07-15 08:23:00,50.5,50.0,29.99,East,87,0.0,1.0,98,0.00,,,0.00,Wunderground v.1.15,2013-07-15 15:23:00,
2013-07-15 08:29:00,51.0,50.5,30.00,East,87,0.0,1.0,98,0.00,,,0.00,Wunderground v.1.15,2013-07-15 15:29:00,
2013-07-15 08:34:00,51.7,51.2,30.00,East,87,0.0,0.0,98,0.00,,,0.00,Wunderground v.1.15,2013-07-15 15:34:00,
2013-07-15 08:41:00,52.6,51.8,29.99,East,87,0.0,0.0,97,0.00,,,0.00,Wunderground v.1.15,2013-07-15 15:41:00,
2013-07-15 08:46:00,53.3,52.2,29.99,East,96,0.0,1.0,96,0.00,,,0.00,Wunderground v.1.15,2013-07-15 15:46:00,
2013-07-15 08:52:00,54.1,52.4,29.99,East,96,0.0,0.0,94,0.00,,,0.00,Wunderground v.1.15,2013-07-15 15:52:00,
2013-07-15 08:57:00,54.8,52.8,29.99,East,96,0.0,0.0,93,0.00,,,0.00,Wunderground v.1.15,2013-07-15 15:57:00,
2013-07-15 09:02:00,55.7,53.1,29.99,East,96,0.0,0.0,91,0.00,,,0.00,Wunderground v.1.15,2013-07-15 16:02:00,
2013-07-15 09:08:00,57.1,53.9,29.99,East,96,0.0,0.0,89,0.00,,,0.00,Wunderground v.1.15,2013-07-15 16:08:00,
2013-07-15 09:13:00,58.4,54.5,29.99,East,96,0.0,0.0,87,0.00,,,0.00,Wunderground v.1.15,2013-07-15 16:13:00,
2013-07-15 09:19:00,59.7,55.8,29.99,ENE,59,0.0,0.0,87,0.00,,,0.00,Wunderground v.1.15,2013-07-15 16:19:00,
2013-07-15 09:24:00,60.5,55.3,29.99,WSW,244,1.0,2.0,83,0.00,,,0.00,Wunderground v.1.15,2013-07-15 16:24:00,
2013-07-15 09:29:00,61.0,55.5,29.99,WSW,256,1.0,3.0,82,0.00,,,0.00,Wunderground v.1.15,2013-07-15 16:29:00,
2013-07-15 09:34:00,61.3,55.4,29.98,WNW,293,1.0,2.0,81,0.00,,,0.00,Wunderground v.1.15,2013-07-15 16:34:00,
2013-07-15 09:41:00,61.9,55.7,29.98,West,273,1.0,4.0,80,0.00,,,0.00,Wunderground v.1.15,2013-07-15 16:41:00,
2013-07-15 09:46:00,62.4,56.8,29.98,WNW,282,2.0,4.0,82,0.00,,,0.00,Wunderground v.1.15,2013-07-15 16:46:00,
2013-07-15 09:52:00,62.5,55.9,29.98,West,280,3.0,4.0,79,0.00,,,0.00,Wunderground v.1.15,2013-07-15 16:52:00,
2013-07-15 09:57:00,62.7,56.4,29.98,West,278,3.0,4.0,80,0.00,,,0.00,Wunderground v.1.15,2013-07-15 16:57:00,
2013-07-15 10:04:00,63.2,56.2,29.98,West,271,4.0,6.0,78,0.00,,,0.00,Wunderground v.1.15,2013-07-15 17:04:00,
2013-07-15 10:10:00,63.2,56.2,29.98,West,277,5.0,5.0,78,0.00,,,0.00,Wunderground v.1.15,2013-07-15 17:10:00,
2013-07-15 10:16:00,63.1,56.1,29.97,WSW,250,5.0,5.0,78,0.00,,,0.00,Wunderground v.1.15,2013-07-15 17:16:00,
2013-07-15 10:22:00,63.3,56.3,29.97,West,273,4.0,5.0,78,0.00,,,0.00,Wunderground v.1.15,2013-07-15 17:22:00,
2013-07-15 10:27:00,63.1,56.1,29.97,West,271,5.0,9.0,78,0.00,,,0.00,Wunderground v.1.15,2013-07-15 17:27:00,
2013-07-15 10:33:00,63.3,56.3,29.97,West,270,6.0,7.0,78,0.00,,,0.00,Wunderground v.1.15,2013-07-15 17:33:00,
2013-07-15 10:38:00,63.3,56.3,29.97,West,271,6.0,8.0,78,0.00,,,0.00,Wunderground v.1.15,2013-07-15 17:38:00,
2013-07-15 10:44:00,63.6,56.6,29.96,West,269,5.0,7.0,78,0.00,,,0.00,Wunderground v.1.15,2013-07-15 17:44:00,
2013-07-15 10:49:00,63.5,56.5,29.96,West,274,5.0,7.0,78,0.00,,,0.00,Wunderground v.1.15,2013-07-15 17:49:00,
2013-07-15 10:55:00,63.9,56.5,29.96,West,279,5.0,7.0,77,0.00,,,0.00,Wunderground v.1.15,2013-07-15 17:55:00,
2013-07-15 11:00:00,64.0,56.6,29.96,West,275,5.0,6.0,77,0.00,,,0.00,Wunderground v.1.15,2013-07-15 18:00:00,
2013-07-15 11:05:00,64.1,57.1,29.96,West,271,5.0,7.0,78,0.00,,,0.00,Wunderground v.1.15,2013-07-15 18:05:00,
2013-07-15 11:11:00,64.3,56.6,29.95,West,269,6.0,7.0,76,0.00,,,0.00,Wunderground v.1.15,2013-07-15 18:11:00,
2013-07-15 11:16:00,64.4,56.7,29.95,WNW,286,6.0,8.0,76,0.00,,,0.00,Wunderground v.1.15,2013-07-15 18:16:00,
2013-07-15 11:21:00,64.5,56.8,29.95,West,268,6.0,8.0,76,0.00,,,0.00,Wunderground v.1.15,2013-07-15 18:21:00,
2013-07-15 11:26:00,64.6,56.9,29.95,West,269,6.0,8.0,76,0.00,,,0.00,Wunderground v.1.15,2013-07-15 18:26:00,
2013-07-15 11:32:00,64.9,57.5,29.95,West,271,7.0,8.0,77,0.00,,,0.00,Wunderground v.1.15,2013-07-15 18:32:00,
2013-07-15 11:38:00,64.9,57.2,29.94,WSW,257,7.0,8.0,76,0.00,,,0.00,Wunderground v.1.15,2013-07-15 18:38:00,
2013-07-15 11:43:00,65.1,57.0,29.94,West,267,6.0,6.0,75,0.00,,,0.00,Wunderground v.1.15,2013-07-15 18:43:00,
2013-07-15 11:50:00,65.4,57.6,29.94,West,265,6.0,7.0,76,0.00,,,0.00,Wunderground v.1.15,2013-07-15 18:50:00,
2013-07-15 11:56:00,65.0,56.9,29.94,West,271,7.0,9.0,75,0.00,,,0.00,Wunderground v.1.15,2013-07-15 18:56:00,
2013-07-15 12:02:00,64.9,57.2,29.94,West,275,7.0,7.0,76,0.00,,,0.00,Wunderground v.1.15,2013-07-15 19:02:00,
2013-07-15 12:08:00,65.2,57.1,29.94,West,267,6.0,8.0,75,0.00,,,0.00,Wunderground v.1.15,2013-07-15 19:08:00,
2013-07-15 12:13:00,65.3,57.2,29.93,West,277,6.0,10.0,75,0.00,,,0.00,Wunderground v.1.15,2013-07-15 19:13:00,
2013-07-15 12:18:00,65.7,58.3,29.93,WNW,297,6.0,10.0,77,0.00,,,0.00,Wunderground v.1.15,2013-07-15 19:18:00,
2013-07-15 12:23:00,65.8,56.9,29.93,WNW,300,5.0,8.0,73,0.00,,,0.00,Wunderground v.1.15,2013-07-15 19:23:00,
2013-07-15 12:29:00,65.6,57.5,29.93,West,267,5.0,8.0,75,0.00,,,0.00,Wunderground v.1.15,2013-07-15 19:29:00,
2013-07-15 12:35:00,66.1,57.6,29.93,West,263,4.0,7.0,74,0.00,,,0.00,Wunderground v.1.15,2013-07-15 19:35:00,
2013-07-15 12:40:00,66.0,57.5,29.93,WNW,284,4.0,4.0,74,0.00,,,0.00,Wunderground v.1.15,2013-07-15 19:40:00,
2013-07-15 12:46:00,66.0,57.5,29.93,WNW,285,5.0,8.0,74,0.00,,,0.00,Wunderground v.1.15,2013-07-15 19:46:00,
2013-07-15 12:51:00,66.3,57.8,29.93,WNW,296,5.0,5.0,74,0.00,,,0.00,Wunderground v.1.15,2013-07-15 19:51:00,
2013-07-15 12:56:00,66.9,58.3,29.93,NW,321,4.0,5.0,74,0.00,,,0.00,Wunderground v.1.15,2013-07-15 19:56:00,
2013-07-15 13:02:00,66.7,57.4,29.92,WNW,295,4.0,6.0,72,0.00,,,0.00,Wunderground v.1.15,2013-07-15 20:02:00,
2013-07-15 13:07:00,67.2,58.2,29.92,WNW,286,5.0,6.0,73,0.00,,,0.00,Wunderground v.1.15,2013-07-15 20:07:00,
2013-07-15 13:12:00,67.0,57.7,29.92,WNW,296,5.0,9.0,72,0.00,,,0.00,Wunderground v.1.15,2013-07-15 20:12:00,
2013-07-15 13:18:00,66.7,57.0,29.92,West,270,5.0,9.0,71,0.00,,,0.00,Wunderground v.1.15,2013-07-15 20:18:00,
2013-07-15 13:23:00,66.5,57.2,29.92,West,262,6.0,8.0,72,0.00,,,0.00,Wunderground v.1.15,2013-07-15 20:23:00,
2013-07-15 13:29:00,66.6,57.3,29.92,West,276,7.0,8.0,72,0.00,,,0.00,Wunderground v.1.15,2013-07-15 20:29:00,
2013-07-15 13:35:00,66.3,57.0,29.91,West,262,7.0,9.0,72,0.00,,,0.00,Wunderground v.1.15,2013-07-15 20:35:00,
2013-07-15 13:40:00,66.3,57.0,29.91,West,261,7.0,7.0,72,0.00,,,0.00,Wunderground v.1.15,2013-07-15 20:40:00,
2013-07-15 13:45:00,66.4,57.5,29.91,West,265,7.0,10.0,73,0.00,,,0.00,Wunderground v.1.15,2013-07-15 20:45:00,
2013-07-15 13:50:00,66.3,57.4,29.91,WNW,282,8.0,8.0,73,0.00,,,0.00,Wunderground v.1.15,2013-07-15 20:50:00,
2013-07-15 13:55:00,66.7,57.8,29.90,West,262,7.0,8.0,73,0.00,,,0.00,Wunderground v.1.15,2013-07-15 20:55:00,
2013-07-15 14:00:00,66.8,57.1,29.90,West,268,6.0,6.0,71,0.00,,,0.00,Wunderground v.1.15,2013-07-15 21:00:00,
2013-07-15 14:06:00,66.9,58.0,29.90,West,278,6.0,6.0,73,0.00,,,0.00,Wunderground v.1.15,2013-07-15 21:06:00,
2013-07-15 14:11:00,67.2,57.9,29.90,West,281,6.0,7.0,72,0.00,,,0.00,Wunderground v.1.15,2013-07-15 21:11:00,
2013-07-15 14:16:00,67.5,57.8,29.90,WNW,283,6.0,7.0,71,0.00,,,0.00,Wunderground v.1.15,2013-07-15 21:16:00,
2013-07-15 14:21:00,67.7,58.3,29.89,West,272,7.0,7.0,72,0.00,,,0.00,Wunderground v.1.15,2013-07-15 21:21:00,
2013-07-15 14:26:00,67.7,57.6,29.89,West,275,7.0,10.0,70,0.00,,,0.00,Wunderground v.1.15,2013-07-15 21:26:00,
2013-07-15 14:32:00,67.5,58.2,29.89,WNW,286,6.0,8.0,72,0.00,,,0.00,Wunderground v.1.15,2013-07-15 21:32:00,
2013-07-15 14:37:00,67.6,57.9,29.89,West,272,6.0,8.0,71,0.00,,,0.00,Wunderground v.1.15,2013-07-15 21:37:00,
2013-07-15 14:43:00,68.2,58.4,29.88,West,267,6.0,7.0,71,0.00,,,0.00,Wunderground v.1.15,2013-07-15 21:43:00,
2013-07-15 14:48:00,68.1,57.9,29.88,West,274,6.0,9.0,70,0.00,,,0.00,Wunderground v.1.15,2013-07-15 21:48:00,
2013-07-15 14:53:00,68.2,58.0,29.88,West,273,7.0,10.0,70,0.00,,,0.00,Wunderground v.1.15,2013-07-15 21:53:00,
2013-07-15 14:59:00,68.2,58.0,29.88,West,262,6.0,10.0,70,0.00,,,0.00,Wunderground v.1.15,2013-07-15 21:59:00,
2013-07-15 15:04:00,68.2,58.0,29.87,West,274,5.0,8.0,70,0.00,,,0.00,Wunderground v.1.15,2013-07-15 22:04:00,
2013-07-15 15:11:00,68.9,59.1,29.87,West,267,6.0,6.0,71,0.00,,,0.00,Wunderground v.1.15,2013-07-15 22:11:00,
2013-07-15 15:17:00,69.2,58.6,29.87,West,277,6.0,9.0,69,0.00,,,0.00,Wunderground v.1.15,2013-07-15 22:17:00,
2013-07-15 15:23:00,69.6,58.6,29.86,West,277,6.0,6.0,68,0.00,,,0.00,Wunderground v.1.15,2013-07-15 22:23:00,
2013-07-15 15:28:00,70.1,58.6,29.86,West,277,6.0,8.0,67,0.00,,,0.00,Wunderground v.1.15,2013-07-15 22:28:00,
2013-07-15 15:33:00,70.2,58.7,29.86,West,273,7.0,7.0,67,0.00,,,0.00,Wunderground v.1.15,2013-07-15 22:33:00,
2013-07-15 15:39:00,70.4,58.9,29.86,West,268,6.0,8.0,67,0.00,,,0.00,Wunderground v.1.15,2013-07-15 22:39:00,
2013-07-15 15:44:00,70.3,58.4,29.86,West,260,7.0,11.0,66,0.00,,,0.00,Wunderground v.1.15,2013-07-15 22:44:00,
2013-07-15 15:50:00,70.6,59.1,29.86,West,267,6.0,7.0,67,0.00,,,0.00,Wunderground v.1.15,2013-07-15 22:50:00,
2013-07-15 15:57:00,70.7,59.2,29.85,West,277,6.0,10.0,67,0.00,,,0.00,Wunderground v.1.15,2013-07-15 22:57:00,
2013-07-15 16:02:00,70.8,58.9,29.85,West,263,7.0,10.0,66,0.00,,,0.00,Wunderground v.1.15,2013-07-15 23:02:00,
2013-07-15 16:07:00,70.6,59.1,29.85,WSW,244,6.0,10.0,67,0.00,,,0.00,Wunderground v.1.15,2013-07-15 23:07:00,
2013-07-15 16:12:00,70.6,59.1,29.85,West,267,7.0,7.0,67,0.00,,,0.00,Wunderground v.1.15,2013-07-15 23:12:00,
2013-07-15 16:17:00,70.8,59.3,29.84,WNW,288,7.0,8.0,67,0.00,,,0.00,Wunderground v.1.15,2013-07-15 23:17:00,
2013-07-15 16:22:00,71.0,59.1,29.84,West,262,7.0,9.0,66,0.00,,,0.00,Wunderground v.1.15,2013-07-15 23:22:00,
2013-07-15 16:28:00,70.7,58.4,29.84,West,279,7.0,10.0,65,0.00,,,0.00,Wunderground v.1.15,2013-07-15 23:28:00,
2013-07-15 16:34:00,71.0,59.1,29.84,West,265,8.0,9.0,66,0.00,,,0.00,Wunderground v.1.15,2013-07-15 23:34:00,
2013-07-15 16:40:00,71.1,58.7,29.83,West,259,8.0,8.0,65,0.00,,,0.00,Wunderground v.1.15,2013-07-15 23:40:00,
2013-07-15 16:45:00,71.2,58.4,29.83,WSW,258,8.0,8.0,64,0.00,,,0.00,Wunderground v.1.15,2013-07-15 23:45:00,
2013-07-15 16:50:00,71.5,59.1,29.83,West,279,7.0,7.0,65,0.00,,,0.00,Wunderground v.1.15,2013-07-15 23:50:00,
2013-07-15 16:55:00,71.8,59.4,29.83,West,277,6.0,7.0,65,0.00,,,0.00,Wunderground v.1.15,2013-07-15 23:55:00,
2013-07-15 17:01:00,71.7,58.4,29.83,West,269,6.0,9.0,63,0.00,,,0.00,Wunderground v.1.15,2013-07-16 00:01:00,
2013-07-15 17:06:00,71.8,57.6,29.82,WSW,248,6.0,9.0,61,0.00,,,0.00,Wunderground v.1.15,2013-07-16 00:06:00,
2013-07-15 17:12:00,72.1,57.4,29.82,WSW,254,6.0,9.0,60,0.00,,,0.00,Wunderground v.1.15,2013-07-16 00:12:00,
2013-07-15 17:18:00,72.1,57.0,29.82,WNW,282,6.0,9.0,59,0.00,,,0.00,Wunderground v.1.15,2013-07-16 00:18:00,
2013-07-15 17:23:00,72.2,56.1,29.82,West,263,6.0,10.0,57,0.00,,,0.00,Wunderground v.1.15,2013-07-16 00:23:00,
2013-07-15 17:29:00,72.2,56.1,29.81,West,267,7.0,13.0,57,0.00,,,0.00,Wunderground v.1.15,2013-07-16 00:29:00,
2013-07-15 17:34:00,72.2,56.1,29.81,West,274,6.0,7.0,57,0.00,,,0.00,Wunderground v.1.15,2013-07-16 00:34:00,
2013-07-15 17:39:00,72.3,56.2,29.81,West,277,6.0,7.0,57,0.00,,,0.00,Wunderground v.1.15,2013-07-16 00:39:00,
2013-07-15 17:45:00,72.1,55.5,29.81,West,265,5.0,11.0,56,0.00,,,0.00,Wunderground v.1.15,2013-07-16 00:45:00,
2013-07-15 17:50:00,72.1,55.5,29.81,West,263,5.0,11.0,56,0.00,,,0.00,Wunderground v.1.15,2013-07-16 00:50:00,
2013-07-15 17:55:00,71.9,55.3,29.81,WNW,282,5.0,11.0,56,0.00,,,0.00,Wunderground v.1.15,2013-07-16 00:55:00,
2013-07-15 18:02:00,71.8,54.8,29.81,West,264,6.0,7.0,55,0.00,,,0.00,Wunderground v.1.15,2013-07-16 01:02:00,
2013-07-15 18:07:00,71.6,55.1,29.81,West,269,6.0,8.0,56,0.00,,,0.00,Wunderground v.1.15,2013-07-16 01:07:00,
2013-07-15 18:13:00,71.2,55.2,29.81,West,261,6.0,7.0,57,0.00,,,0.00,Wunderground v.1.15,2013-07-16 01:13:00,
2013-07-15 18:19:00,71.1,55.1,29.81,WNW,288,6.0,8.0,57,0.00,,,0.00,Wunderground v.1.15,2013-07-16 01:19:00,
2013-07-15 18:24:00,70.7,54.2,29.81,West,271,6.0,8.0,56,0.00,,,0.00,Wunderground v.1.15,2013-07-16 01:24:00,
2013-07-15 18:31:00,70.2,54.2,29.81,West,270,7.0,8.0,57,0.00,,,0.00,Wunderground v.1.15,2013-07-16 01:31:00,
2013-07-15 18:36:00,69.8,54.4,29.81,West,275,7.0,9.0,58,0.00,,,0.00,Wunderground v.1.15,2013-07-16 01:36:00,
2013-07-15 18:41:00,69.7,54.7,29.80,West,274,7.0,9.0,59,0.00,,,0.00,Wunderground v.1.15,2013-07-16 01:41:00,
2013-07-15 18:47:00,69.4,54.4,29.80,WSW,240,7.0,11.0,59,0.00,,,0.00,Wunderground v.1.15,2013-07-16 01:47:00,
2013-07-15 18:52:00,69.3,54.8,29.80,West,274,7.0,9.0,60,0.00,,,0.00,Wunderground v.1.15,2013-07-16 01:52:00,
2013-07-15 18:58:00,69.0,54.5,29.80,West,264,7.0,9.0,60,0.00,,,0.00,Wunderground v.1.15,2013-07-16 01:58:00,
2013-07-15 19:03:00,68.7,54.3,29.80,West,281,7.0,9.0,60,0.00,,,0.00,Wunderground v.1.15,2013-07-16 02:03:00,
2013-07-15 19:09:00,68.6,54.2,29.80,West,267,7.0,9.0,60,0.00,,,0.00,Wunderground v.1.15,2013-07-16 02:09:00,
2013-07-15 19:14:00,68.4,54.0,29.80,West,267,7.0,7.0,60,0.00,,,0.00,Wunderground v.1.15,2013-07-16 02:14:00,
2013-07-15 19:19:00,68.3,54.8,29.80,West,273,7.0,7.0,62,0.00,,,0.00,Wunderground v.1.15,2013-07-16 02:19:00,
2013-07-15 19:24:00,67.8,54.3,29.80,West,274,7.0,9.0,62,0.00,,,0.00,Wunderground v.1.15,2013-07-16 02:24:00,
2013-07-15 19:29:00,67.3,54.3,29.80,WNW,284,7.0,9.0,63,0.00,,,0.00,Wunderground v.1.15,2013-07-16 02:29:00,
2013-07-15 19:36:00,66.7,54.1,29.80,West,263,7.0,9.0,64,0.00,,,0.00,Wunderground v.1.15,2013-07-16 02:36:00,
2013-07-15 19:41:00,66.4,54.3,29.80,West,273,7.0,8.0,65,0.00,,,0.00,Wunderground v.1.15,2013-07-16 02:41:00,
2013-07-15 19:47:00,66.1,54.0,29.80,WSW,252,7.0,8.0,65,0.00,,,0.00,Wunderground v.1.15,2013-07-16 02:47:00,
2013-07-15 19:54:00,65.2,53.6,29.81,West,273,7.0,9.0,66,0.00,,,0.00,Wunderground v.1.15,2013-07-16 02:54:00,
2013-07-15 20:00:00,64.7,53.5,29.81,West,281,6.0,6.0,67,0.00,,,0.00,Wunderground v.1.15,2013-07-16 03:00:00,
2013-07-15 20:06:00,64.3,53.1,29.81,WNW,298,4.0,6.0,67,0.00,,,0.00,Wunderground v.1.15,2013-07-16 03:06:00,
2013-07-15 20:11:00,64.1,53.3,29.81,NW,307,3.0,3.0,68,0.00,,,0.00,Wunderground v.1.15,2013-07-16 03:11:00,
2013-07-15 20:17:00,63.6,53.2,29.81,West,280,2.0,3.0,69,0.00,,,0.00,Wunderground v.1.15,2013-07-16 03:17:00,
2013-07-15 20:24:00,63.1,53.2,29.81,NW,321,1.0,3.0,70,0.00,,,0.00,Wunderground v.1.15,2013-07-16 03:24:00,
2013-07-15 20:29:00,62.6,53.1,29.81,NW,318,1.0,3.0,71,0.00,,,0.00,Wunderground v.1.15,2013-07-16 03:29:00,
2013-07-15 20:35:00,62.2,53.1,29.81,NW,318,1.0,1.0,72,0.00,,,0.00,Wunderground v.1.15,2013-07-16 03:35:00,
2013-07-15 20:41:00,61.6,52.9,29.81,NW,318,0.0,0.0,73,0.00,,,0.00,Wunderground v.1.15,2013-07-16 03:41:00,
2013-07-15 20:46:00,61.0,53.0,29.81,NW,318,0.0,0.0,75,0.00,,,0.00,Wunderground v.1.15,2013-07-16 03:46:00,
2013-07-15 20:51:00,60.6,52.3,29.82,NW,318,0.0,0.0,74,0.00,,,0.00,Wunderground v.1.15,2013-07-16 03:51:00,
2013-07-15 20:57:00,60.2,52.2,29.82,NW,318,0.0,0.0,75,0.00,,,0.00,Wunderground v.1.15,2013-07-16 03:57:00,
2013-07-15 21:01:00,59.8,51.9,29.82,NW,306,0.0,0.0,75,0.00,,,0.00,Wunderground v.1.15,2013-07-16 04:01:00,
2013-07-15 21:02:00,59.7,51.8,29.82,NW,306,0.0,0.0,75,0.00,,,0.00,Wunderground v.1.15,2013-07-16 04:02:00,
2013-07-15 21:05:00,59.5,51.9,29.82,NW,326,1.0,3.0,76,0.00,,,0.00,Wunderground v.1.15,2013-07-16 04:05:00,
2013-07-15 21:11:00,59.2,52.0,29.82,NW,312,1.0,1.0,77,0.00,,,0.00,Wunderground v.1.15,2013-07-16 04:11:00,
2013-07-15 21:14:00,59.0,51.8,29.82,NW,312,0.0,1.0,77,0.00,,,0.00,Wunderground v.1.15,2013-07-16 04:14:00,
2013-07-15 21:20:00,58.7,51.9,29.82,NW,312,0.0,0.0,78,0.00,,,0.00,Wunderground v.1.15,2013-07-16 04:20:00,
2013-07-15 21:25:00,58.5,52.0,29.82,NNW,331,0.0,1.0,79,0.00,,,0.00,Wunderground v.1.15,2013-07-16 04:25:00,
2013-07-15 21:31:00,58.1,52.0,29.82,NNW,330,0.0,0.0,80,0.00,,,0.00,Wunderground v.1.15,2013-07-16 04:31:00,
2013-07-15 21:36:00,57.6,51.8,29.82,NNW,331,0.0,0.0,81,0.00,,,0.00,Wunderground v.1.15,2013-07-16 04:36:00,
2013-07-15 21:42:00,57.0,51.6,29.83,NNW,331,0.0,0.0,82,0.00,,,0.00,Wunderground v.1.15,2013-07-16 04:42:00,
2013-07-15 21:48:00,56.4,51.3,29.83,NNW,331,0.0,0.0,83,0.00,,,0.00,Wunderground v.1.15,2013-07-16 04:48:00,
2013-07-15 21:54:00,55.9,50.8,29.83,NNW,331,0.0,0.0,83,0.00,,,0.00,Wunderground v.1.15,2013-07-16 04:54:00,
2013-07-15 21:59:00,55.6,50.8,29.83,NNW,330,0.0,0.0,84,0.00,,,0.00,Wunderground v.1.15,2013-07-16 04:59:00,
2013-07-15 22:05:00,55.0,50.3,29.83,NNW,331,0.0,0.0,84,0.00,,,0.00,Wunderground v.1.15,2013-07-16 05:05:00,
2013-07-15 22:11:00,54.5,50.1,29.83,NNW,331,0.0,0.0,85,0.00,,,0.00,Wunderground v.1.15,2013-07-16 05:11:00,
2013-07-15 22:17:00,54.2,50.1,29.83,NNW,330,0.0,0.0,86,0.00,,,0.00,Wunderground v.1.15,2013-07-16 05:17:00,
2013-07-15 22:23:00,53.6,49.8,29.83,NNW,331,0.0,0.0,87,0.00,,,0.00,Wunderground v.1.15,2013-07-16 05:23:00,
2013-07-15 22:28:00,53.3,49.8,29.82,NNW,330,0.0,0.0,88,0.00,,,0.00,Wunderground v.1.15,2013-07-16 05:28:00,
2013-07-15 22:34:00,53.1,49.9,29.83,NNW,331,0.0,0.0,89,0.00,,,0.00,Wunderground v.1.15,2013-07-16 05:34:00,
2013-07-15 22:39:00,53.1,50.2,29.82,NNW,331,0.0,0.0,90,0.00,,,0.00,Wunderground v.1.15,2013-07-16 05:39:00,
2013-07-15 22:44:00,52.8,49.6,29.82,NNW,331,0.0,0.0,89,0.00,,,0.00,Wunderground v.1.15,2013-07-16 05:44:00,
2013-07-15 22:50:00,52.6,49.8,29.82,NNW,330,0.0,0.0,90,0.00,,,0.00,Wunderground v.1.15,2013-07-16 05:50:00,
2013-07-15 22:55:00,52.3,49.5,29.83,NNW,331,0.0,0.0,90,0.00,,,0.00,Wunderground v.1.15,2013-07-16 05:55:00,
2013-07-15 23:00:00,52.2,49.7,29.83,NNW,331,0.0,0.0,91,0.00,,,0.00,Wunderground v.1.15,2013-07-16 06:00:00,
2013-07-15 23:06:00,51.8,49.0,29.83,NNW,330,0.0,0.0,90,0.00,,,0.00,Wunderground v.1.15,2013-07-16 06:06:00,
2013-07-15 23:12:00,51.6,49.4,29.83,NNW,331,0.0,0.0,92,0.00,,,0.00,Wunderground v.1.15,2013-07-16 06:12:00,
2013-07-15 23:17:00,51.9,49.9,29.83,NNW,331,0.0,0.0,93,0.00,,,0.00,Wunderground v.1.15,2013-07-16 06:17:00,
2013-07-15 23:22:00,51.6,49.4,29.83,NNW,331,0.0,0.0,92,0.00,,,0.00,Wunderground v.1.15,2013-07-16 06:22:00,
2013-07-15 23:28:00,51.2,48.7,29.83,NNW,331,0.0,0.0,91,0.00,,,0.00,Wunderground v.1.15,2013-07-16 06:28:00,
2013-07-15 23:34:00,50.9,48.4,29.83,NNW,331,0.0,0.0,91,0.00,,,0.00,Wunderground v.1.15,2013-07-16 06:34:00,
2013-07-15 23:39:00,50.6,48.1,29.83,NNW,330,0.0,0.0,91,0.00,,,0.00,Wunderground v.1.15,2013-07-16 06:39:00,
2013-07-15 23:44:00,50.4,47.9,29.82,NNW,331,0.0,0.0,91,0.00,,,0.00,Wunderground v.1.15,2013-07-16 06:44:00,
2013-07-15 23:49:00,50.1,47.9,29.83,NNW,331,0.0,0.0,92,0.00,,,0.00,Wunderground v.1.15,2013-07-16 06:49:00,
2013-07-15 23:54:00,50.0,48.1,29.82,NNW,330,0.0,0.0,93,0.00,,,0.00,Wunderground v.1.15,2013-07-16 06:54:00,